Time;durP1;ratioP1;P1;durP2;ratioP2;P2;SDS_P1;SDS_P2;PMS_P1;PMS_P2;Temp;Humidity;BMP_temperature;BMP_pressure;BME280_temperature;BME280_humidity;BME280_pressure;Samples;Min_cycle;Max_cycle;Signal;HPM_P1;HPM_P2
2022/04/15 00:02:25;;;;;;;;;;;8.20;99.90;;;;;;5074724;28;19908;-45
2022/04/15 00:04:50;;;;;;;;;;;8.20;99.90;;;;;;5075279;28;19908;-42
2022/04/15 00:07:17;;;;;;;;;;;8.10;99.90;;;;;;5075320;28;19915;-45
2022/04/15 00:09:43;;;;;;;;;;;8.00;99.90;;;;;;5074462;28;19909;-43
2022/04/15 00:12:10;;;;;;;;;;;8.00;99.90;;;;;;5075224;28;19916;-44
2022/04/15 00:14:36;;;;;;;;;;;8.00;99.90;;;;;;5076107;28;19943;-43
2022/04/15 00:17:01;;;;;;;;;;;7.90;99.90;;;;;;5074471;28;20371;-45
2022/04/15 00:19:27;;;;;;;;;;;7.90;99.90;;;;;;5074950;28;20355;-45
2022/04/15 00:21:52;;;;;;;;;;;7.90;99.90;;;;;;5075111;28;19908;-45
2022/04/15 00:24:18;;;;;;;;;;;7.80;99.90;;;;;;5074151;28;20245;-43
2022/04/15 00:26:43;;;;;;;;;;;7.80;99.90;;;;;;5074848;28;19940;-44
2022/04/15 00:29:09;;;;;;;;;;;7.90;99.90;;;;;;5075008;28;19908;-45
2022/04/15 00:31:34;;;;;;;;;;;7.90;99.90;;;;;;5074067;28;20008;-43
2022/04/15 00:34:00;;;;;;;;;;;7.90;99.90;;;;;;5075457;28;20197;-43
2022/04/15 00:36:26;;;;;;;;;;;7.90;99.90;;;;;;5074749;28;19955;-43
2022/04/15 00:38:51;;;;;;;;;;;7.90;99.90;;;;;;5073850;28;19968;-43
2022/04/15 00:41:17;;;;;;;;;;;7.90;99.90;;;;;;5074568;28;19919;-45
2022/04/15 00:43:43;;;;;;;;;;;7.90;99.90;;;;;;5074678;28;19908;-45
2022/04/15 00:46:09;;;;;;;;;;;7.90;99.90;;;;;;5074238;28;19908;-43
2022/04/15 00:48:35;;;;;;;;;;;8.00;99.90;;;;;;5074458;28;20282;-44
2022/04/15 00:51:01;;;;;;;;;;;8.10;99.90;;;;;;5073768;28;19963;-45
2022/04/15 00:53:28;;;;;;;;;;;8.10;99.90;;;;;;5074241;28;20398;-42
2022/04/15 00:55:57;;;;;;;;;;;8.20;99.90;;;;;;5075364;28;20290;-43
2022/04/15 00:58:23;;;;;;;;;;;8.20;99.90;;;;;;5073589;28;19912;-47
2022/04/15 01:00:51;;;;;;;;;;;8.20;99.90;;;;;;5074355;28;19908;-44
2022/04/15 01:03:20;;;;;;;;;;;8.20;99.90;;;;;;5074267;28;20343;-44
2022/04/15 01:05:46;;;;;;;;;;;8.30;99.90;;;;;;5073176;28;19915;-43
2022/04/15 01:08:12;;;;;;;;;;;8.30;99.90;;;;;;5074055;28;19912;-44
2022/04/15 01:10:38;;;;;;;;;;;8.30;99.90;;;;;;5074392;28;19915;-43
2022/04/15 01:13:05;;;;;;;;;;;8.40;99.90;;;;;;5077878;28;20347;-42
2022/04/15 01:15:30;;;;;;;;;;;8.40;99.90;;;;;;5094222;28;19919;-46
2022/04/15 01:17:56;;;;;;;;;;;8.40;99.90;;;;;;5094333;28;19990;-43
2022/04/15 01:20:21;;;;;;;;;;;8.40;99.90;;;;;;5093402;28;19943;-44
2022/04/15 01:23:07;;;;;;;;;;;8.40;99.90;;;;;;5094024;28;19908;-46
2022/04/15 01:25:32;;;;;;;;;;;8.40;99.90;;;;;;5093921;28;20161;-43
2022/04/15 01:27:58;;;;;;;;;;;8.50;99.90;;;;;;5093348;28;20150;-43
2022/04/15 01:30:24;;;;;;;;;;;8.60;99.90;;;;;;5093958;28;19908;-43
2022/04/15 01:32:50;;;;;;;;;;;8.60;99.90;;;;;;5093630;28;19924;-43
2022/04/15 01:35:16;;;;;;;;;;;8.60;99.90;;;;;;5091353;28;20287;-44
2022/04/15 01:37:42;;;;;;;;;;;8.60;99.90;;;;;;5094051;28;19953;-43
2022/04/15 01:40:08;;;;;;;;;;;8.60;99.90;;;;;;5091240;28;19916;-44
2022/04/15 01:42:34;;;;;;;;;;;8.60;99.90;;;;;;5093627;28;20375;-45
2022/04/15 01:45:00;;;;;;;;;;;8.60;99.90;;;;;;5093774;28;19912;-43
2022/04/15 01:47:26;;;;;;;;;;;8.50;99.90;;;;;;5092844;28;19908;-45
2022/04/15 01:49:52;;;;;;;;;;;8.50;99.90;;;;;;5093547;28;19908;-43
2022/04/15 01:52:18;;;;;;;;;;;8.50;99.90;;;;;;5093460;28;19908;-45
2022/04/15 01:54:44;;;;;;;;;;;8.50;99.90;;;;;;5092655;28;19916;-42
2022/04/15 01:57:11;;;;;;;;;;;8.50;99.90;;;;;;5093538;28;19999;-43
2022/04/15 01:59:37;;;;;;;;;;;8.60;99.90;;;;;;5091416;28;19955;-45
2022/04/15 02:02:03;;;;;;;;;;;8.60;99.90;;;;;;5092711;28;20328;-48
2022/04/15 02:04:29;;;;;;;;;;;8.60;99.90;;;;;;5092987;28;19912;-43
2022/04/15 02:06:55;;;;;;;;;;;8.60;99.90;;;;;;5093320;28;20160;-44
2022/04/15 02:09:20;;;;;;;;;;;8.60;99.90;;;;;;5092383;28;19916;-45
2022/04/15 02:11:46;;;;;;;;;;;8.60;99.90;;;;;;5093282;28;20161;-45
2022/04/15 02:14:16;;;;;;;;;;;8.60;99.90;;;;;;5093335;28;19916;-43
2022/04/15 02:16:42;;;;;;;;;;;8.60;99.90;;;;;;5092186;28;19962;-43
2022/04/15 02:19:07;;;;;;;;;;;8.60;99.90;;;;;;5093086;28;19908;-44
2022/04/15 02:21:33;;;;;;;;;;;8.70;99.90;;;;;;5092662;28;19947;-44
2022/04/15 02:23:59;;;;;;;;;;;8.70;99.90;;;;;;5091259;28;20320;-42
2022/04/15 02:26:24;;;;;;;;;;;8.70;99.90;;;;;;5091670;28;20003;-43
2022/04/15 02:28:50;;;;;;;;;;;8.80;99.90;;;;;;5093018;28;19915;-43
2022/04/15 02:31:15;;;;;;;;;;;8.90;99.90;;;;;;5092204;28;19961;-45
2022/04/15 02:33:41;;;;;;;;;;;8.80;99.90;;;;;;5091131;28;20006;-42
2022/04/15 02:36:06;;;;;;;;;;;8.90;99.90;;;;;;5092794;28;20076;-44
2022/04/15 02:38:32;;;;;;;;;;;8.90;99.90;;;;;;5092111;28;19954;-43
2022/04/15 02:40:58;;;;;;;;;;;8.90;99.90;;;;;;5092966;28;19916;-43
2022/04/15 02:43:25;;;;;;;;;;;8.90;99.90;;;;;;5092260;28;20001;-43
2022/04/15 02:45:51;;;;;;;;;;;8.90;99.90;;;;;;5092716;28;20003;-46
2022/04/15 02:48:16;;;;;;;;;;;8.90;99.90;;;;;;5092806;28;19993;-43
2022/04/15 02:50:42;;;;;;;;;;;8.90;99.90;;;;;;5091989;28;19912;-44
2022/04/15 02:53:07;;;;;;;;;;;8.90;99.90;;;;;;5090902;28;19927;-46
2022/04/15 02:55:33;;;;;;;;;;;8.90;99.90;;;;;;5092669;28;20000;-46
2022/04/15 02:57:58;;;;;;;;;;;8.90;99.90;;;;;;5091851;28;19940;-43
2022/04/15 03:00:24;;;;;;;;;;;9.00;99.90;;;;;;5090485;28;20077;-44
2022/04/15 03:02:49;;;;;;;;;;;8.90;99.90;;;;;;5071057;28;19916;-43
2022/04/15 03:05:15;;;;;;;;;;;8.90;99.90;;;;;;5071797;28;19916;-46
2022/04/15 03:07:40;;;;;;;;;;;8.90;99.90;;;;;;5072410;28;19983;-43
2022/04/15 03:10:06;;;;;;;;;;;8.90;99.90;;;;;;5072250;28;19996;-44
2022/04/15 03:12:35;;;;;;;;;;;8.90;99.90;;;;;;5072513;28;20007;-44
2022/04/15 03:15:02;;;;;;;;;;;8.90;99.90;;;;;;5072254;28;19924;-44
2022/04/15 03:17:27;;;;;;;;;;;8.90;99.90;;;;;;5072273;28;19908;-43
2022/04/15 03:19:52;;;;;;;;;;;8.80;99.90;;;;;;5071467;28;20378;-45
2022/04/15 03:22:19;;;;;;;;;;;8.80;99.90;;;;;;5091575;28;20367;-46
2022/04/15 03:24:44;;;;;;;;;;;8.80;99.90;;;;;;5092326;28;19963;-43
2022/04/15 03:27:10;;;;;;;;;;;8.80;99.90;;;;;;5091681;28;20371;-44
2022/04/15 03:29:36;;;;;;;;;;;8.80;99.90;;;;;;5092451;28;20351;-45
2022/04/15 03:32:01;;;;;;;;;;;8.80;99.90;;;;;;5092918;28;19908;-43
2022/04/15 03:34:26;;;;;;;;;;;8.80;99.90;;;;;;5095334;28;19916;-47
2022/04/15 03:36:52;;;;;;;;;;;8.80;99.90;;;;;;5096233;28;19912;-43
2022/04/15 03:39:17;;;;;;;;;;;8.80;99.90;;;;;;5094383;28;19920;-44
2022/04/15 03:41:43;;;;;;;;;;;8.80;99.90;;;;;;5095434;28;20309;-43
2022/04/15 03:44:08;;;;;;;;;;;8.80;99.90;;;;;;5096022;28;19999;-46
2022/04/15 03:46:34;;;;;;;;;;;8.80;99.90;;;;;;5096029;28;19947;-48
2022/04/15 03:49:00;;;;;;;;;;;8.80;99.90;;;;;;5095334;28;19939;-44
2022/04/15 03:51:25;;;;;;;;;;;8.80;99.90;;;;;;5095943;28;19961;-44
2022/04/15 03:53:51;;;;;;;;;;;8.80;99.90;;;;;;5094919;28;19920;-45
2022/04/15 03:56:16;;;;;;;;;;;8.80;99.90;;;;;;5095928;28;20442;-47
2022/04/15 03:58:42;;;;;;;;;;;8.80;99.90;;;;;;5095218;28;20393;-43
2022/04/15 04:01:07;;;;;;;;;;;8.80;99.90;;;;;;5093643;28;20335;-45
2022/04/15 04:03:33;;;;;;;;;;;8.80;99.90;;;;;;5095526;28;19915;-47
2022/04/15 04:05:58;;;;;;;;;;;8.80;99.90;;;;;;5095706;28;20386;-43
2022/04/15 04:08:24;;;;;;;;;;;8.80;99.90;;;;;;5094857;28;19953;-44
2022/04/15 04:10:49;;;;;;;;;;;8.80;99.90;;;;;;5095651;28;19954;-42
2022/04/15 04:13:14;;;;;;;;;;;8.90;99.90;;;;;;5095363;28;19908;-46
2022/04/15 04:15:40;;;;;;;;;;;8.90;99.90;;;;;;5094524;28;19916;-43
2022/04/15 04:18:05;;;;;;;;;;;8.90;99.90;;;;;;5094423;28;19908;-44
2022/04/15 04:20:32;;;;;;;;;;;8.90;99.90;;;;;;5094309;28;19908;-42
2022/04/15 04:22:57;;;;;;;;;;;9.00;99.90;;;;;;5092037;28;19908;-45
2022/04/15 04:25:23;;;;;;;;;;;9.00;99.90;;;;;;5094324;28;20052;-45
2022/04/15 04:27:49;;;;;;;;;;;9.00;99.90;;;;;;5094222;28;20279;-46
2022/04/15 04:30:14;;;;;;;;;;;9.00;99.90;;;;;;5093457;28;19915;-44
2022/04/15 04:32:40;;;;;;;;;;;9.00;99.90;;;;;;5080608;28;20421;-42
2022/04/15 04:35:06;;;;;;;;;;;9.10;99.90;;;;;;5073977;28;20310;-43
2022/04/15 04:37:33;;;;;;;;;;;9.10;99.90;;;;;;5072919;28;20018;-44
2022/04/15 04:39:58;;;;;;;;;;;9.10;99.90;;;;;;5073847;28;20275;-43
2022/04/15 04:42:24;;;;;;;;;;;9.10;99.90;;;;;;5073550;28;19915;-42
2022/04/15 04:44:50;;;;;;;;;;;9.10;99.90;;;;;;5073808;28;20398;-46
2022/04/15 04:47:15;;;;;;;;;;;9.10;99.90;;;;;;5073646;28;20356;-44
2022/04/15 04:49:41;;;;;;;;;;;9.10;99.90;;;;;;5073638;28;19915;-45
2022/04/15 04:52:06;;;;;;;;;;;9.10;99.90;;;;;;5072932;28;20333;-43
2022/04/15 04:54:32;;;;;;;;;;;9.10;99.90;;;;;;5073522;28;19916;-44
2022/04/15 04:56:58;;;;;;;;;;;9.10;99.90;;;;;;5072845;28;19915;-45
2022/04/15 04:59:25;;;;;;;;;;;9.00;99.90;;;;;;5073606;28;19908;-43
2022/04/15 05:01:51;;;;;;;;;;;9.00;99.90;;;;;;5073319;28;19908;-45
2022/04/15 05:04:16;;;;;;;;;;;9.00;99.90;;;;;;5073617;28;20358;-45
2022/04/15 05:06:42;;;;;;;;;;;9.00;99.90;;;;;;5073251;28;19913;-43
2022/04/15 05:09:07;;;;;;;;;;;9.00;99.90;;;;;;5073266;28;19909;-44
2022/04/15 05:11:32;;;;;;;;;;;9.00;99.90;;;;;;5072615;28;20309;-42
2022/04/15 05:13:58;;;;;;;;;;;9.00;99.90;;;;;;5073070;28;19978;-44
2022/04/15 05:16:23;;;;;;;;;;;8.90;99.90;;;;;;5072973;28;20006;-47
2022/04/15 05:18:49;;;;;;;;;;;8.90;99.90;;;;;;5072357;28;19983;-43
2022/04/15 05:21:14;;;;;;;;;;;9.00;99.90;;;;;;5073114;28;19920;-46
2022/04/15 05:23:40;;;;;;;;;;;9.00;99.90;;;;;;5073981;28;19966;-45
2022/04/15 05:26:05;;;;;;;;;;;9.00;99.90;;;;;;5072190;28;19908;-44
2022/04/15 05:28:35;;;;;;;;;;;9.00;99.90;;;;;;5072886;28;19963;-43
2022/04/15 05:31:02;;;;;;;;;;;9.00;99.90;;;;;;5072631;28;19908;-44
2022/04/15 05:33:27;;;;;;;;;;;9.00;99.90;;;;;;5071596;28;19943;-45
2022/04/15 05:35:53;;;;;;;;;;;9.10;99.90;;;;;;5072685;28;20371;-43
2022/04/15 05:38:18;;;;;;;;;;;9.00;99.90;;;;;;5072708;28;19962;-45
2022/04/15 05:40:44;;;;;;;;;;;9.10;99.90;;;;;;5071755;28;19916;-45
2022/04/15 05:43:09;;;;;;;;;;;9.10;99.90;;;;;;5072946;28;19920;-43
2022/04/15 05:45:35;;;;;;;;;;;9.10;99.90;;;;;;5073431;28;19909;-47
2022/04/15 05:48:00;;;;;;;;;;;9.20;99.90;;;;;;5072485;28;20007;-43
2022/04/15 05:50:26;;;;;;;;;;;9.10;99.90;;;;;;5074310;28;19920;-44
2022/04/15 05:52:51;;;;;;;;;;;9.20;99.90;;;;;;5073153;28;20360;-43
2022/04/15 05:55:17;;;;;;;;;;;9.20;99.90;;;;;;5071527;28;19921;-45
2022/04/15 05:57:42;;;;;;;;;;;9.20;99.90;;;;;;5073292;28;19909;-43
2022/04/15 06:00:09;;;;;;;;;;;9.10;99.90;;;;;;5073202;28;19908;-44
2022/04/15 06:02:34;;;;;;;;;;;9.10;99.90;;;;;;5072288;28;19908;-44
2022/04/15 06:05:00;;;;;;;;;;;9.10;99.90;;;;;;5076629;28;19922;-43
2022/04/15 06:07:25;;;;;;;;;;;9.00;99.90;;;;;;5079572;28;19958;-45
2022/04/15 06:09:50;;;;;;;;;;;9.00;99.90;;;;;;5075459;28;19908;-43
2022/04/15 06:12:16;;;;;;;;;;;9.00;99.90;;;;;;5093376;28;19999;-44
2022/04/15 06:14:42;;;;;;;;;;;9.00;99.90;;;;;;5092177;28;20435;-43
2022/04/15 06:17:07;;;;;;;;;;;9.00;99.90;;;;;;5093326;28;19930;-44
2022/04/15 06:19:33;;;;;;;;;;;9.00;99.90;;;;;;5083097;28;19912;-44
2022/04/15 06:21:58;;;;;;;;;;;9.10;99.90;;;;;;5082235;28;20336;-43
2022/04/15 06:24:24;;;;;;;;;;;9.10;99.90;;;;;;5077252;28;20004;-45
2022/04/15 06:26:50;;;;;;;;;;;9.10;99.90;;;;;;5080369;28;20370;-45
2022/04/15 06:29:16;;;;;;;;;;;9.10;99.90;;;;;;5076744;28;20053;-46
2022/04/15 06:31:41;;;;;;;;;;;9.10;99.90;;;;;;5081641;28;20011;-43
2022/04/15 06:34:06;;;;;;;;;;;9.10;99.90;;;;;;5080518;28;19927;-45
2022/04/15 06:36:32;;;;;;;;;;;9.10;99.90;;;;;;5079130;28;19927;-44
2022/04/15 06:38:57;;;;;;;;;;;9.10;99.90;;;;;;5082226;28;19914;-45
2022/04/15 06:41:23;;;;;;;;;;;9.10;99.90;;;;;;5081022;28;19908;-46
2022/04/15 06:43:48;;;;;;;;;;;9.10;99.90;;;;;;5080025;28;19962;-44
2022/04/15 06:46:14;;;;;;;;;;;9.10;99.90;;;;;;5082297;28;20428;-43
2022/04/15 06:48:39;;;;;;;;;;;9.10;99.90;;;;;;5080685;28;19909;-44
2022/04/15 06:51:04;;;;;;;;;;;9.10;99.90;;;;;;5080021;28;19908;-43
2022/04/15 06:53:30;;;;;;;;;;;9.10;99.90;;;;;;5081844;28;19917;-45
2022/04/15 06:55:55;;;;;;;;;;;9.10;99.90;;;;;;5080077;28;19912;-44
2022/04/15 06:58:21;;;;;;;;;;;9.20;99.90;;;;;;5080566;28;19916;-44
2022/04/15 07:00:46;;;;;;;;;;;9.20;99.90;;;;;;5080970;28;19908;-43
2022/04/15 07:03:12;;;;;;;;;;;9.30;99.90;;;;;;5078241;28;19981;-48
2022/04/15 07:05:38;;;;;;;;;;;9.30;99.90;;;;;;5079984;28;20275;-44
2022/04/15 07:08:05;;;;;;;;;;;9.40;99.90;;;;;;5083249;28;19916;-45
2022/04/15 07:10:30;;;;;;;;;;;9.40;99.90;;;;;;5086137;28;19912;-45
2022/04/15 07:12:56;;;;;;;;;;;9.40;99.90;;;;;;5095333;28;19920;-44
2022/04/15 07:15:23;;;;;;;;;;;9.50;99.90;;;;;;5095582;28;20349;-43
2022/04/15 07:17:49;;;;;;;;;;;9.60;99.90;;;;;;5095253;28;20014;-47
2022/04/15 07:20:14;;;;;;;;;;;9.60;99.90;;;;;;5087509;28;20029;-50
2022/04/15 07:22:40;;;;;;;;;;;9.70;99.90;;;;;;5075675;28;20098;-44
2022/04/15 07:25:05;;;;;;;;;;;9.70;99.90;;;;;;5074953;28;19908;-43
2022/04/15 07:27:31;;;;;;;;;;;9.80;99.90;;;;;;5075050;28;19916;-44
2022/04/15 07:29:56;;;;;;;;;;;9.80;99.90;;;;;;5075600;28;20003;-44
2022/04/15 07:32:22;;;;;;;;;;;9.80;99.90;;;;;;5074084;28;20410;-44
2022/04/15 07:34:51;;;;;;;;;;;9.80;99.90;;;;;;5075366;28;20061;-44
2022/04/15 07:37:16;;;;;;;;;;;9.90;99.90;;;;;;5075150;28;19916;-43
2022/04/15 07:39:42;;;;;;;;;;;9.90;99.90;;;;;;5074502;28;19913;-44
2022/04/15 07:42:07;;;;;;;;;;;9.90;99.90;;;;;;5074981;28;20371;-45
2022/04/15 07:44:33;;;;;;;;;;;9.90;99.90;;;;;;5074891;28;20559;-43
2022/04/15 07:46:59;;;;;;;;;;;10.00;99.90;;;;;;5074351;28;19908;-43
2022/04/15 07:49:24;;;;;;;;;;;9.90;99.90;;;;;;5074728;28;19916;-46
2022/04/15 07:51:50;;;;;;;;;;;10.00;99.90;;;;;;5075142;28;19914;-45
2022/04/15 07:54:16;;;;;;;;;;;10.00;99.90;;;;;;5073823;28;19916;-45
2022/04/15 07:56:41;;;;;;;;;;;9.90;99.90;;;;;;5074708;28;19916;-45
2022/04/15 07:59:07;;;;;;;;;;;9.90;99.90;;;;;;5074813;28;20015;-43
2022/04/15 08:01:32;;;;;;;;;;;9.90;99.90;;;;;;5073131;28;19908;-45
2022/04/15 08:03:58;;;;;;;;;;;9.90;99.90;;;;;;5074715;28;19915;-45
2022/04/15 08:06:24;;;;;;;;;;;10.00;99.90;;;;;;5074507;28;19916;-43
2022/04/15 08:08:52;;;;;;;;;;;10.10;99.90;;;;;;5073909;28;19912;-44
2022/04/15 08:11:18;;;;;;;;;;;10.10;99.90;;;;;;5073965;28;20382;-45
2022/04/15 08:13:43;;;;;;;;;;;10.10;99.90;;;;;;5074549;28;20019;-45
2022/04/15 08:16:09;;;;;;;;;;;10.20;99.90;;;;;;5074037;28;19978;-47
2022/04/15 08:18:34;;;;;;;;;;;10.30;99.90;;;;;;5073185;28;20290;-46
2022/04/15 08:21:00;;;;;;;;;;;10.40;99.90;;;;;;5073814;28;19913;-45
2022/04/15 08:23:26;;;;;;;;;;;10.50;99.90;;;;;;5073948;28;20003;-43
2022/04/15 08:25:51;;;;;;;;;;;10.50;99.90;;;;;;5074394;28;19916;-43
2022/04/15 08:28:17;;;;;;;;;;;10.50;99.90;;;;;;5081340;28;19920;-43
2022/04/15 08:30:42;;;;;;;;;;;10.50;99.90;;;;;;5094387;28;20397;-46
2022/04/15 08:33:08;;;;;;;;;;;10.40;99.90;;;;;;5094240;28;19928;-44
2022/04/15 08:35:34;;;;;;;;;;;10.40;99.90;;;;;;5093338;28;19923;-44
2022/04/15 08:38:00;;;;;;;;;;;10.40;99.90;;;;;;5094501;28;19943;-44
2022/04/15 08:40:32;;;;;;;;;;;10.40;99.90;;;;;;5093937;28;20392;-44
2022/04/15 08:43:00;;;;;;;;;;;10.40;99.90;;;;;;5075669;28;19959;-43
2022/04/15 08:45:26;;;;;;;;;;;10.40;99.90;;;;;;5075916;28;19908;-43
2022/04/15 08:47:57;;;;;;;;;;;10.40;99.90;;;;;;5094297;28;20359;-43
2022/04/15 08:50:23;;;;;;;;;;;10.40;99.90;;;;;;5092957;28;20312;-47
2022/04/15 08:52:49;;;;;;;;;;;10.50;99.90;;;;;;5094062;28;19908;-46
2022/04/15 08:55:15;;;;;;;;;;;10.50;99.90;;;;;;5093796;28;19920;-45
2022/04/15 08:57:40;;;;;;;;;;;10.50;99.90;;;;;;5093168;28;19935;-44
2022/04/15 09:00:06;;;;;;;;;;;10.50;99.90;;;;;;5094044;28;19915;-45
2022/04/15 09:02:37;;;;;;;;;;;10.60;99.90;;;;;;5093544;28;19920;-44
2022/04/15 09:05:06;;;;;;;;;;;10.60;99.90;;;;;;5087311;28;19916;-43
2022/04/15 09:07:32;;;;;;;;;;;10.80;99.90;;;;;;5083379;28;19919;-43
2022/04/15 09:09:58;;;;;;;;;;;10.80;99.90;;;;;;5075319;28;19908;-45
2022/04/15 09:12:31;;;;;;;;;;;10.90;99.90;;;;;;5077103;28;19954;-43
2022/04/15 09:14:59;;;;;;;;;;;11.00;99.90;;;;;;5093607;28;20272;-43
2022/04/15 09:17:28;;;;;;;;;;;11.00;99.90;;;;;;5092651;28;19908;-44
2022/04/15 09:19:54;;;;;;;;;;;11.10;99.90;;;;;;5093566;28;19912;-43
2022/04/15 09:22:19;;;;;;;;;;;11.20;99.90;;;;;;5093177;28;19919;-45
2022/04/15 09:24:46;;;;;;;;;;;11.20;99.90;;;;;;5084805;28;20417;-46
2022/04/15 09:27:11;;;;;;;;;;;11.40;99.90;;;;;;5073266;28;20007;-45
2022/04/15 09:29:40;;;;;;;;;;;11.50;99.90;;;;;;5072491;28;19955;-42
2022/04/15 09:32:14;;;;;;;;;;;11.50;99.90;;;;;;5071280;28;19956;-44
2022/04/15 09:34:59;;;;;;;;;;;11.60;99.90;;;;;;5072744;28;20410;-43
2022/04/15 09:37:25;;;;;;;;;;;11.70;99.90;;;;;;5072806;28;19909;-45
2022/04/15 09:40:06;;;;;;;;;;;11.80;99.90;;;;;;5072220;28;19919;-47
2022/04/15 09:42:34;;;;;;;;;;;11.80;99.90;;;;;;5072405;28;19916;-43
2022/04/15 09:45:13;;;;;;;;;;;11.90;99.90;;;;;;5072873;28;20054;-43
